Time;durP1;ratioP1;P1;durP2;ratioP2;P2;SDS_P1;SDS_P2;PMS_P1;PMS_P2;Temp;Humidity;BMP_temperature;BMP_pressure;BME280_temperature;BME280_humidity;BME280_pressure;Samples;Min_cycle;Max_cycle;Signal;HPM_P1;HPM_P2
2020/12/15 00:00:13;;;;;;;8.40;7.60;;;3.50;99.90;;;4.19;91.02;97469.31;5252005;28;20234;-78
2020/12/15 00:02:45;;;;;;;7.97;7.27;;;3.50;99.90;;;4.19;91.56;97463.38;5249218;28;20577;-78
2020/12/15 00:05:18;;;;;;;7.77;7.17;;;3.50;99.90;;;4.20;91.62;97470.19;5252084;28;20660;-78
2020/12/15 00:07:50;;;;;;;9.60;8.70;;;3.60;99.90;;;4.18;91.55;97474.25;5248629;28;20199;-79
2020/12/15 00:10:22;;;;;;;9.43;8.53;;;3.60;99.90;;;4.20;91.78;97470.19;5246214;28;20193;-79
2020/12/15 00:12:54;;;;;;;10.23;9.33;;;3.60;99.90;;;4.23;91.69;97470.41;5228469;28;20239;-78
2020/12/15 00:15:26;;;;;;;9.43;8.53;;;3.60;99.90;;;4.24;91.72;97468.00;5238954;28;20363;-77
2020/12/15 00:17:58;;;;;;;9.80;8.90;;;3.60;99.90;;;4.22;91.55;97461.94;5233122;28;20202;-77
2020/12/15 00:20:31;;;;;;;10.30;9.43;;;3.60;99.90;;;4.27;91.71;97477.47;5232621;28;20217;-77
2020/12/15 00:23:03;;;;;;;10.13;9.17;;;3.60;99.90;;;4.30;91.70;97475.19;5242459;28;20228;-79
2020/12/15 00:25:35;;;;;;;9.87;8.97;;;3.60;99.90;;;4.34;91.60;97478.81;5243398;28;20212;-78
2020/12/15 00:28:08;;;;;;;10.63;9.63;;;3.70;99.90;;;4.39;91.53;97475.84;5245516;28;20207;-78
2020/12/15 00:30:40;;;;;;;9.13;8.43;;;3.60;99.90;;;4.42;91.11;97482.78;5247851;28;20204;-78
2020/12/15 00:33:13;;;;;;;8.97;8.27;;;3.60;99.90;;;4.39;90.79;97487.63;5240752;28;20244;-78
2020/12/15 00:35:46;;;;;;;12.53;11.40;;;3.60;99.90;;;4.33;90.65;97488.06;5267404;22;20591;-76
2020/12/15 00:38:18;;;;;;;11.10;10.00;;;3.50;99.90;;;4.27;90.82;97492.66;5219695;28;20336;-76
2020/12/15 00:41:00;;;;;;;11.57;10.33;;;3.50;99.90;;;4.28;90.85;97480.09;5224113;28;20217;-77
2020/12/15 00:43:32;;;;;;;9.80;8.97;;;3.50;99.90;;;4.35;90.14;97494.13;5228435;28;20574;-77
2020/12/15 00:46:05;;;;;;;9.47;8.47;;;3.50;99.90;;;4.30;90.21;97490.34;5228183;28;20275;-79
2020/12/15 00:48:37;;;;;;;10.23;9.23;;;3.40;99.90;;;4.24;89.86;97488.25;5228407;28;20235;-79
2020/12/15 00:51:15;;;;;;;10.80;9.70;;;3.40;99.90;;;4.28;90.22;97497.81;5252378;22;20229;-78
2020/12/15 00:53:49;;;;;;;10.93;9.83;;;3.40;99.90;;;4.26;89.61;97496.84;5235968;28;20208;-78
2020/12/15 00:56:21;;;;;;;9.57;8.73;;;3.30;99.90;;;4.22;89.61;97488.91;5228703;28;20581;-77
2020/12/15 00:58:53;;;;;;;9.37;8.60;;;3.30;99.90;;;4.19;90.02;97491.19;5247015;28;20265;-78
2020/12/15 01:01:25;;;;;;;8.40;7.80;;;3.40;99.90;;;4.12;90.23;97491.47;5236310;28;20221;-79
2020/12/15 01:03:57;;;;;;;8.10;7.40;;;3.30;99.90;;;4.14;90.04;97495.00;5228121;28;20220;-78
2020/12/15 01:06:30;;;;;;;9.33;8.53;;;3.30;99.90;;;4.18;90.54;97492.84;5225095;28;20193;-78
2020/12/15 01:09:04;;;;;;;9.00;8.30;;;3.40;99.90;;;4.20;90.45;97495.47;5212440;28;20580;-78
2020/12/15 01:11:36;;;;;;;7.37;6.77;;;3.40;99.90;;;4.23;90.80;97495.69;5208533;28;20224;-78
2020/12/15 01:14:08;;;;;;;6.90;6.40;;;3.40;99.90;;;4.24;90.70;97498.38;5223091;28;20295;-78
2020/12/15 01:16:40;;;;;;;7.73;7.13;;;3.50;99.90;;;4.23;90.69;97495.69;5226323;28;20200;-78
2020/12/15 01:19:12;;;;;;;8.50;7.80;;;3.40;99.90;;;4.30;90.49;97500.47;5230812;28;20208;-78
2020/12/15 01:21:45;;;;;;;9.03;8.30;;;3.40;99.90;;;4.35;89.93;97505.84;5233612;28;20233;-78
2020/12/15 01:24:17;;;;;;;9.70;8.83;;;3.40;99.90;;;4.28;90.09;97494.41;5210620;28;20685;-78
2020/12/15 01:26:49;;;;;;;9.57;8.77;;;3.40;99.90;;;4.18;89.96;97494.50;5224601;28;20296;-78
2020/12/15 01:29:21;;;;;;;8.43;7.63;;;3.30;99.90;;;4.19;90.36;97503.84;5216443;28;20201;-77
2020/12/15 01:31:53;;;;;;;8.43;7.67;;;3.40;99.90;;;4.19;90.28;97499.66;5227728;28;20711;-78
2020/12/15 01:34:25;;;;;;;8.73;7.90;;;3.40;99.90;;;4.18;90.63;97494.50;5225497;28;20584;-78
2020/12/15 01:37:03;;;;;;;7.50;6.90;;;3.40;99.90;;;4.19;90.76;97496.25;5219462;28;20662;-78
2020/12/15 01:39:35;;;;;;;7.50;6.90;;;3.40;99.90;;;4.26;90.28;97508.56;5220665;28;20645;-78
2020/12/15 01:42:08;;;;;;;7.03;6.43;;;3.40;99.90;;;4.23;89.94;97500.75;5226599;28;20238;-78
2020/12/15 01:44:41;;;;;;;6.83;6.33;;;3.40;99.90;;;4.20;90.19;97501.41;5222888;28;20205;-78
2020/12/15 01:47:17;;;;;;;6.37;5.87;;;3.40;99.90;;;4.17;90.10;97496.13;5227295;28;20222;-78
2020/12/15 01:49:49;;;;;;;6.70;6.10;;;3.30;99.90;;;4.19;90.17;97498.78;5225793;28;20201;-78
2020/12/15 01:52:23;;;;;;;7.27;6.43;;;3.40;99.90;;;4.21;90.44;97502.31;5226820;28;20231;-78
2020/12/15 01:54:56;;;;;;;7.57;6.97;;;3.40;99.90;;;4.22;90.42;97499.88;5214597;28;20201;-78
2020/12/15 01:57:28;;;;;;;6.30;5.80;;;3.40;99.90;;;4.23;90.49;97500.75;5225305;28;20204;-79
2020/12/15 02:00:00;;;;;;;5.97;5.57;;;3.40;99.90;;;4.15;90.30;97494.25;5226500;28;20221;-78
2020/12/15 02:02:33;;;;;;;6.17;5.73;;;3.40;99.90;;;4.20;90.63;97500.53;5222480;28;20252;-78
2020/12/15 02:05:05;;;;;;;7.00;6.40;;;3.40;99.90;;;4.26;90.77;97501.00;5206711;28;20205;-78
2020/12/15 02:07:38;;;;;;;6.93;6.43;;;3.50;99.90;;;4.34;90.19;97499.91;5225421;28;20673;-78
2020/12/15 02:10:10;;;;;;;6.07;5.63;;;3.50;99.90;;;4.28;90.29;97505.41;5210767;28;20741;-78
2020/12/15 02:12:44;;;;;;;6.07;5.57;;;3.50;99.90;;;4.31;90.83;97493.75;5225387;28;20217;-78
2020/12/15 02:15:16;;;;;;;5.50;5.10;;;3.50;99.90;;;4.32;90.40;97498.94;5229914;28;20196;-78
2020/12/15 02:17:48;;;;;;;6.20;5.70;;;3.50;99.90;;;4.31;90.57;97496.28;5228070;28;20222;-78
2020/12/15 02:20:20;;;;;;;6.23;5.73;;;3.50;99.90;;;4.33;90.55;97498.16;5229555;28;20221;-79
2020/12/15 02:22:52;;;;;;;5.17;4.77;;;3.50;99.90;;;4.38;90.15;97496.88;5228642;28;20227;-78
2020/12/15 02:25:25;;;;;;;5.80;5.40;;;3.50;99.90;;;4.37;90.60;97495.09;5230045;28;20208;-78
2020/12/15 02:27:57;;;;;;;6.10;5.50;;;3.60;99.90;;;4.48;89.15;97496.78;5228796;28;20201;-78
2020/12/15 02:30:29;;;;;;;5.77;5.27;;;3.50;99.90;;;4.42;89.55;97508.97;5231103;28;20208;-78
2020/12/15 02:33:01;;;;;;;5.47;5.07;;;3.50;99.90;;;4.38;89.85;97501.03;5214064;28;20665;-79
2020/12/15 02:35:33;;;;;;;4.97;4.57;;;3.50;99.90;;;4.40;89.82;97500.38;5231078;28;20228;-78
2020/12/15 02:38:06;;;;;;;5.80;5.30;;;3.60;99.90;;;4.33;90.05;97485.53;5228511;28;20208;-78
2020/12/15 02:40:38;;;;;;;5.90;5.50;;;3.50;99.90;;;4.40;90.00;97485.19;5230829;28;20232;-78
2020/12/15 02:43:11;;;;;;;5.60;5.20;;;3.50;99.90;;;4.46;89.43;97478.09;5230029;28;20197;-78
2020/12/15 02:45:44;;;;;;;5.33;4.93;;;3.50;99.90;;;4.36;89.62;97474.75;5230556;28;20205;-78
2020/12/15 02:48:16;;;;;;;6.20;5.70;;;3.50;99.90;;;4.34;90.02;97469.56;5226874;28;20197;-78
2020/12/15 02:50:48;;;;;;;6.00;5.50;;;3.50;99.90;;;4.34;89.85;97469.56;5228819;28;20585;-77
2020/12/15 02:53:21;;;;;;;6.97;6.37;;;3.50;99.90;;;4.29;89.69;97481.88;5227151;28;20315;-79
2020/12/15 02:55:53;;;;;;;6.63;6.07;;;3.40;99.90;;;4.31;89.88;97481.09;5228863;28;20218;-77
2020/12/15 02:58:25;;;;;;;6.57;6.07;;;3.40;99.90;;;4.21;90.03;97477.91;5220186;28;20202;-78
2020/12/15 03:00:57;;;;;;;7.10;6.50;;;3.40;99.90;;;4.23;90.43;97473.81;5209247;28;20233;-78
2020/12/15 03:03:29;;;;;;;6.40;5.90;;;3.50;99.90;;;4.28;90.52;97474.16;5210282;28;20743;-78
2020/12/15 03:06:01;;;;;;;6.43;5.90;;;3.50;99.90;;;4.35;90.69;97473.88;5223389;28;20318;-78
2020/12/15 03:08:35;;;;;;;6.57;5.97;;;3.60;99.90;;;4.35;90.68;97466.28;5229810;28;20235;-79
2020/12/15 03:11:07;;;;;;;6.80;6.33;;;3.60;99.90;;;4.39;90.81;97464.84;5229465;28;20213;-78
2020/12/15 03:13:39;;;;;;;6.37;5.87;;;3.70;99.90;;;4.38;90.73;97460.53;5230044;28;20461;-78
2020/12/15 03:16:11;;;;;;;6.90;6.30;;;3.70;99.90;;;4.42;90.11;97465.97;5228176;28;20291;-78
2020/12/15 03:18:44;;;;;;;7.30;6.70;;;3.70;99.90;;;4.43;89.86;97472.75;5229650;28;20227;-78
2020/12/15 03:21:20;;;;;;;8.37;7.67;;;3.60;99.90;;;4.56;89.97;97469.50;5226652;28;20225;-78
2020/12/15 03:23:53;;;;;;;8.30;7.60;;;3.70;99.90;;;4.57;89.42;97472.91;5228065;28;20215;-79
2020/12/15 03:26:25;;;;;;;8.70;7.93;;;3.70;99.90;;;4.54;89.54;97470.16;5226942;28;20206;-78
2020/12/15 03:28:57;;;;;;;9.63;8.60;;;3.80;99.90;;;4.58;89.86;97474.66;5208951;28;20209;-78
2020/12/15 03:31:29;;;;;;;8.30;7.57;;;3.90;99.90;;;4.60;90.37;97470.59;5218163;28;20221;-78
2020/12/15 03:34:02;;;;;;;7.93;7.23;;;3.90;99.90;;;4.59;90.51;97466.31;5209250;28;20202;-79
2020/12/15 03:36:34;;;;;;;8.53;7.83;;;3.90;99.90;;;4.64;90.79;97475.16;5228027;28;20217;-78
2020/12/15 03:39:07;;;;;;;8.43;7.73;;;3.90;99.90;;;4.84;89.92;97484.19;5227378;28;20201;-78
2020/12/15 03:41:39;;;;;;;7.27;6.67;;;4.00;99.90;;;4.75;88.59;97469.22;5229103;28;20234;-77
2020/12/15 03:44:12;;;;;;;7.43;6.83;;;4.00;99.90;;;4.62;89.33;97461.50;5228510;28;20208;-79
2020/12/15 03:46:44;;;;;;;7.97;7.27;;;3.90;99.90;;;4.57;89.78;97452.66;5229380;28;20698;-79
2020/12/15 03:49:17;;;;;;;8.53;7.57;;;3.90;99.90;;;4.67;89.66;97439.94;5229437;28;20212;-78
2020/12/15 03:51:49;;;;;;;8.57;7.80;;;3.90;99.90;;;4.68;89.98;97451.81;5228347;28;20236;-78
2020/12/15 03:54:22;;;;;;;7.87;7.17;;;4.00;99.90;;;4.75;89.86;97441.38;5225375;28;20227;-78
2020/12/15 03:56:54;;;;;;;7.80;7.10;;;4.00;99.90;;;4.76;89.96;97434.66;5228515;28;20677;-78
2020/12/15 03:59:26;;;;;;;8.50;7.77;;;4.10;99.90;;;4.77;90.04;97424.63;5209014;28;20204;-78
2020/12/15 04:01:58;;;;;;;7.67;6.97;;;4.10;99.90;;;4.84;90.03;97419.25;5208821;28;20226;-77
2020/12/15 04:04:31;;;;;;;7.90;7.30;;;4.10;99.90;;;4.83;89.57;97404.81;5208842;28;20285;-77
2020/12/15 04:07:03;;;;;;;7.60;7.00;;;4.10;99.90;;;4.89;89.08;97389.16;5221591;28;20212;-78
2020/12/15 04:09:36;;;;;;;6.80;6.20;;;4.10;99.90;;;4.85;89.32;97400.75;5218642;28;20210;-78
2020/12/15 04:12:08;;;;;;;8.23;7.60;;;4.10;99.90;;;4.86;88.01;97407.56;5229025;28;20214;-78
2020/12/15 04:14:41;;;;;;;8.30;7.50;;;4.10;99.90;;;4.67;88.64;97391.84;5219911;28;20662;-78
2020/12/15 04:17:13;;;;;;;9.10;8.37;;;4.00;99.90;;;4.84;88.35;97382.94;5229017;28;20205;-78
2020/12/15 04:19:45;;;;;;;8.97;7.80;;;4.10;99.90;;;4.67;88.76;97380.06;5228388;28;20205;-78
2020/12/15 04:22:17;;;;;;;8.87;8.07;;;4.10;99.90;;;4.62;89.18;97390.63;5228104;28;20234;-78
2020/12/15 04:24:50;;;;;;;8.23;7.43;;;4.10;99.90;;;4.74;88.98;97414.28;5219231;28;20205;-79
2020/12/15 04:27:22;;;;;;;9.07;8.27;;;4.10;99.90;;;4.61;89.33;97452.16;5227874;28;20673;-79
2020/12/15 04:29:54;;;;;;;8.73;8.00;;;4.00;99.90;;;4.73;89.29;97456.44;5227688;28;20603;-78
2020/12/15 04:32:26;;;;;;;8.50;7.60;;;4.10;99.90;;;4.79;89.40;97450.94;5223309;28;20235;-78
2020/12/15 04:34:58;;;;;;;7.83;7.13;;;4.10;99.90;;;4.81;89.52;97456.09;5208031;28;20198;-79
2020/12/15 04:37:30;;;;;;;9.53;8.53;;;4.20;99.90;;;4.84;89.62;97454.69;5222903;28;20211;-78
2020/12/15 04:40:03;;;;;;;10.93;9.83;;;4.20;99.90;;;4.88;89.89;97459.19;5207052;28;20202;-77
2020/12/15 04:42:36;;;;;;;10.60;9.60;;;4.20;99.90;;;4.92;89.79;97451.06;5221281;28;20232;-78
2020/12/15 04:45:08;;;;;;;9.33;8.53;;;4.20;99.90;;;4.88;89.53;97440.59;5207662;28;20284;-78
2020/12/15 04:47:44;;;;;;;9.10;8.10;;;4.20;99.90;;;4.89;89.67;97458.44;5225937;28;20208;-78
2020/12/15 04:50:19;;;;;;;9.20;8.40;;;4.20;99.90;;;4.87;89.38;97449.84;5228249;28;20200;-78
2020/12/15 04:52:55;;;;;;;8.47;7.77;;;4.20;99.90;;;4.93;89.35;97468.00;5224327;28;20712;-79
2020/12/15 04:55:28;;;;;;;7.90;7.20;;;4.20;99.90;;;4.95;89.12;97463.94;5226567;28;20582;-78
2020/12/15 04:58:04;;;;;;;9.00;8.20;;;4.20;99.90;;;4.96;89.25;97470.75;5228034;28;20200;-78
2020/12/15 05:00:36;;;;;;;7.63;7.03;;;4.20;99.90;;;4.91;89.20;97478.78;5226938;28;20225;-79
2020/12/15 05:03:09;;;;;;;8.23;7.60;;;4.20;99.90;;;4.90;89.75;97477.03;5216166;28;20233;-78
2020/12/15 05:05:41;;;;;;;8.30;7.60;;;4.20;99.90;;;4.89;89.81;97486.28;5227326;28;20254;-78
2020/12/15 05:08:16;;;;;;;7.73;7.03;;;4.20;99.90;;;4.89;89.50;97481.22;5219637;28;20209;-78
2020/12/15 05:10:48;;;;;;;8.43;7.80;;;4.20;99.90;;;4.85;90.01;97479.22;5206907;28;20197;-79
2020/12/15 05:13:28;;;;;;;9.50;8.70;;;4.10;99.90;;;4.85;89.88;97485.94;5225611;28;20229;-78
2020/12/15 05:16:00;;;;;;;9.13;8.40;;;4.20;99.90;;;4.86;90.17;97490.22;5227118;28;20205;-78
2020/12/15 05:18:32;;;;;;;9.53;8.70;;;4.20;99.90;;;4.87;90.13;97489.47;5226236;28;20207;-78
2020/12/15 05:21:13;;;;;;;8.37;7.77;;;4.10;99.90;;;4.92;90.13;97494.09;5226527;28;20233;-78
2020/12/15 05:23:50;;;;;;;8.77;8.17;;;4.20;99.90;;;4.96;89.87;97496.09;5225741;28;20211;-78
2020/12/15 05:26:24;;;;;;;8.37;7.70;;;4.20;99.90;;;4.97;90.09;97481.75;5225463;28;20199;-78
2020/12/15 05:29:07;;;;;;;7.97;7.37;;;4.20;99.90;;;4.99;89.77;97474.28;5227029;28;20208;-79
2020/12/15 05:31:41;;;;;;;8.33;7.63;;;4.20;99.90;;;5.00;89.88;97463.38;5227297;28;20213;-79
2020/12/15 05:34:22;;;;;;;8.70;8.00;;;4.30;99.90;;;5.01;90.01;97471.09;5227994;28;20300;-78
2020/12/15 05:36:56;;;;;;;8.90;8.20;;;4.30;99.90;;;5.05;89.46;97483.19;5228046;28;20208;-78
2020/12/15 05:39:29;;;;;;;8.77;8.07;;;4.20;99.90;;;5.10;88.41;97484.41;5209915;28;20194;-79
2020/12/15 05:42:04;;;;;;;10.60;9.60;;;4.20;99.90;;;5.19;87.50;97479.13;5221621;28;20235;-78
2020/12/15 05:44:38;;;;;;;10.63;9.63;;;4.30;99.90;;;4.89;88.52;97481.22;5226514;28;20205;-78
2020/12/15 05:47:10;;;;;;;10.43;9.63;;;4.10;99.90;;;4.78;89.31;97478.66;5208097;28;20204;-78
2020/12/15 05:49:44;;;;;;;13.23;12.13;;;4.10;99.90;;;4.83;89.34;97475.69;5226861;28;20225;-79
2020/12/15 05:52:16;;;;;;;11.67;10.63;;;4.10;99.90;;;4.80;89.89;97480.53;5226402;28;20303;-78
2020/12/15 05:54:48;;;;;;;10.80;9.93;;;4.00;99.90;;;4.85;90.03;97474.16;5234401;28;20203;-80
2020/12/15 05:57:23;;;;;;;10.83;10.03;;;4.10;99.90;;;4.82;89.92;97463.81;5227369;28;20201;-79
2020/12/15 05:59:55;;;;;;;9.90;8.90;;;4.10;99.90;;;4.82;90.00;97479.00;5219361;28;20201;-79
2020/12/15 06:02:27;;;;;;;9.20;8.37;;;4.20;99.90;;;4.81;90.21;97489.91;5223729;28;20225;-78
2020/12/15 06:05:00;;;;;;;9.47;8.67;;;4.20;99.90;;;4.91;90.39;97491.44;5226586;28;20733;-79
2020/12/15 06:07:33;;;;;;;8.77;8.00;;;4.20;99.90;;;4.94;90.35;97491.66;5227856;28;20298;-78
2020/12/15 06:10:06;;;;;;;8.23;7.43;;;4.30;99.90;;;5.00;90.61;97486.16;5225687;28;20201;-78
2020/12/15 06:12:39;;;;;;;9.33;8.60;;;4.30;99.90;;;5.07;90.23;97478.25;5225987;28;20223;-79
2020/12/15 06:15:11;;;;;;;10.37;9.60;;;4.30;99.90;;;5.16;88.70;97481.44;5209723;28;20204;-79
2020/12/15 06:17:49;;;;;;;9.13;8.50;;;4.30;99.90;;;5.10;88.84;97484.41;5224833;28;20205;-79
2020/12/15 06:20:22;;;;;;;9.63;8.83;;;4.40;99.90;;;5.12;89.20;97489.56;5224495;28;20197;-78
2020/12/15 06:22:55;;;;;;;9.37;8.57;;;4.40;99.90;;;5.13;89.26;97484.63;5223484;28;20229;-78
2020/12/15 06:25:29;;;;;;;10.00;9.07;;;4.40;99.90;;;5.15;89.23;97498.31;5226568;28;20233;-79
2020/12/15 06:28:08;;;;;;;9.40;8.60;;;4.40;99.90;;;5.15;89.24;97507.53;5225056;28;20264;-78
2020/12/15 06:30:42;;;;;;;8.83;8.13;;;4.40;99.90;;;5.13;89.29;97504.91;5224452;28;20200;-78
2020/12/15 06:33:15;;;;;;;9.20;8.30;;;4.40;99.90;;;5.18;89.17;97515.38;5227109;28;20201;-78
2020/12/15 06:35:48;;;;;;;9.67;8.77;;;4.40;99.90;;;5.23;88.90;97511.50;5226250;28;20251;-78
2020/12/15 06:38:21;;;;;;;9.70;8.80;;;4.40;99.90;;;5.37;87.96;97507.41;5216374;28;20209;-79
2020/12/15 06:40:53;;;;;;;9.30;8.40;;;4.40;99.90;;;5.22;88.84;97507.22;5224731;28;20225;-78
2020/12/15 06:43:28;;;;;;;9.00;8.30;;;4.40;99.90;;;5.18;88.79;97502.72;5225976;28;20201;-78
2020/12/15 06:46:04;;;;;;;8.80;8.00;;;4.40;99.90;;;5.14;89.36;97500.72;5229677;28;20203;-78
2020/12/15 06:48:37;;;;;;;8.30;7.57;;;4.40;99.90;;;5.14;89.62;97505.78;5225618;28;20193;-78
2020/12/15 06:51:10;;;;;;;8.97;8.07;;;4.30;99.90;;;5.13;89.43;97509.97;5219681;28;20681;-78
2020/12/15 06:53:43;;;;;;;8.93;8.13;;;4.30;99.90;;;5.14;90.10;97503.25;5226245;28;20197;-79
2020/12/15 06:56:15;;;;;;;8.90;8.03;;;4.40;99.90;;;5.11;89.48;97506.44;5229664;28;20205;-79
2020/12/15 06:59:01;;;;;;;8.10;7.50;;;4.30;99.90;;;5.08;89.68;97512.94;5257191;22;20232;-78
2020/12/15 07:01:33;;;;;;;8.23;7.43;;;4.30;99.90;;;5.10;89.74;97493.69;5236557;28;20217;-77
2020/12/15 07:04:05;;;;;;;8.20;7.50;;;4.40;99.90;;;5.11;89.17;97490.34;5243476;28;20468;-80
2020/12/15 07:06:37;;;;;;;8.20;7.50;;;4.30;99.90;;;5.11;90.05;97487.81;5249296;28;20207;-79
2020/12/15 07:09:10;;;;;;;9.47;8.67;;;4.40;99.90;;;5.13;89.72;97487.16;5227912;28;20260;-80
2020/12/15 07:11:42;;;;;;;8.00;7.30;;;4.40;99.90;;;5.17;90.22;97485.72;5224497;28;20190;-78
2020/12/15 07:14:29;;;;;;;7.80;7.20;;;4.40;99.90;;;5.21;89.83;97487.72;5215451;28;20204;-77
2020/12/15 07:17:02;;;;;;;7.43;6.63;;;4.40;99.90;;;5.14;88.75;97491.44;5231408;28;20621;-80
2020/12/15 07:19:35;;;;;;;7.23;6.53;;;4.40;99.90;;;5.12;89.24;97497.19;5231757;28;20236;-80
2020/12/15 07:22:08;;;;;;;6.80;6.30;;;4.40;99.90;;;5.01;89.34;97498.97;5237072;28;20224;-79
2020/12/15 07:24:40;;;;;;;7.40;6.77;;;4.40;99.90;;;5.04;88.73;97498.31;5220926;28;20204;-78
2020/12/15 07:27:13;;;;;;;7.13;6.53;;;4.40;99.90;;;5.07;88.90;97490.94;5229553;28;20228;-78
2020/12/15 07:29:53;;;;;;;7.43;6.83;;;4.40;99.90;;;5.18;88.84;97490.03;5229344;28;20200;-78
2020/12/15 07:32:26;;;;;;;6.93;6.33;;;4.50;99.90;;;5.22;88.91;97498.72;5229278;28;20275;-78
2020/12/15 07:35:03;;;;;;;7.67;6.87;;;4.50;99.90;;;5.34;88.06;97497.06;5229588;28;20284;-79
2020/12/15 07:37:39;;;;;;;9.00;8.30;;;4.60;99.90;;;5.45;87.49;97505.44;5241162;28;20221;-79
2020/12/15 07:40:13;;;;;;;9.47;8.57;;;4.60;99.90;;;5.52;86.75;97512.69;5237347;28;20226;-77
2020/12/15 07:42:55;;;;;;;8.17;7.47;;;4.70;99.90;;;5.40;87.77;97516.09;5231012;28;20610;-78
2020/12/15 07:45:30;;;;;;;9.00;8.20;;;4.60;99.90;;;5.34;87.95;97510.63;5231124;28;20587;-79
2020/12/15 07:48:05;;;;;;;8.27;7.47;;;4.60;99.90;;;5.40;88.72;97531.31;5231497;28;20232;-78
2020/12/15 07:50:37;;;;;;;9.27;8.40;;;4.60;99.90;;;5.41;88.22;97534.75;5235383;28;20216;-78
2020/12/15 07:53:11;;;;;;;7.60;7.00;;;4.70;99.90;;;5.42;87.96;97532.31;5230330;28;20284;-78
2020/12/15 07:55:43;;;;;;;8.03;7.43;;;4.60;99.90;;;5.45;88.09;97528.25;5249148;28;20828;-77
2020/12/15 07:58:16;;;;;;;8.60;7.90;;;4.70;99.90;;;5.43;87.98;97516.31;5238463;28;20312;-78
2020/12/15 08:00:50;;;;;;;8.63;7.87;;;4.70;99.90;;;5.45;88.54;97518.09;5231454;28;20209;-77
2020/12/15 08:03:22;;;;;;;8.20;7.60;;;4.70;99.90;;;5.50;88.33;97516.78;5246657;28;20239;-78
2020/12/15 08:05:54;;;;;;;8.13;7.53;;;4.80;99.90;;;5.55;88.59;97516.34;5249313;28;20305;-78
2020/12/15 08:08:26;;;;;;;8.70;8.00;;;4.80;99.90;;;5.59;87.99;97513.25;5231598;28;20308;-78
2020/12/15 08:10:59;;;;;;;8.20;7.57;;;4.80;99.90;;;5.64;87.90;97516.97;5224415;28;20232;-78
2020/12/15 08:13:31;;;;;;;7.97;7.27;;;4.90;99.90;;;5.67;88.11;97536.59;5225947;28;20745;-78
2020/12/15 08:16:04;;;;;;;8.57;7.77;;;4.90;99.90;;;5.75;87.99;97526.97;5229777;28;20264;-78
2020/12/15 08:18:37;;;;;;;8.40;7.47;;;5.00;99.90;;;5.84;87.20;97536.13;5246013;28;20531;-78
2020/12/15 08:21:16;;;;;;;8.70;7.87;;;5.10;99.90;;;5.87;87.07;97540.53;5236574;28;20225;-79
2020/12/15 08:23:53;;;;;;;8.30;7.60;;;5.10;99.90;;;5.93;87.14;97555.31;5228484;28;20201;-79
2020/12/15 08:26:25;;;;;;;8.33;7.53;;;5.10;99.90;;;5.94;86.80;97552.00;5232391;28;20216;-78
2020/12/15 08:29:04;;;;;;;9.70;8.73;;;5.10;99.90;;;5.97;86.93;97553.09;5212028;28;20226;-77
2020/12/15 08:31:39;;;;;;;9.10;8.20;;;5.10;99.90;;;5.97;86.73;97552.22;5217447;28;20689;-78
2020/12/15 08:34:14;;;;;;;8.53;7.73;;;5.10;99.90;;;5.92;86.67;97550.97;5230800;28;20204;-79
2020/12/15 08:36:49;;;;;;;8.50;7.70;;;5.10;99.90;;;5.88;87.56;97563.44;5227039;28;20216;-79
2020/12/15 08:39:24;;;;;;;9.80;8.87;;;5.10;99.90;;;5.92;87.57;97553.50;5238510;28;20237;-77
2020/12/15 08:41:58;;;;;;;8.87;7.97;;;5.10;99.90;;;5.93;87.12;97551.13;5229532;28;20224;-77
2020/12/15 08:44:35;;;;;;;11.43;10.17;;;5.20;99.90;;;6.02;87.08;97549.22;5232773;28;20307;-79
2020/12/15 08:47:08;;;;;;;13.23;11.10;;;5.20;99.90;;;6.07;86.73;97554.63;5229816;28;20251;-79
2020/12/15 08:49:41;;;;;;;13.03;11.77;;;5.20;99.90;;;6.04;86.88;97557.84;5231300;28;20506;-81
2020/12/15 08:52:21;;;;;;;11.60;10.40;;;5.20;99.90;;;6.05;87.49;97564.66;5229995;28;20264;-78
2020/12/15 08:54:54;;;;;;;12.37;11.17;;;5.20;99.90;;;6.18;87.01;97568.03;5229662;28;20556;-78
2020/12/15 08:57:26;;;;;;;11.80;10.70;;;5.30;99.90;;;6.14;87.00;97572.03;5229592;28;20227;-79
2020/12/15 09:00:13;;;;;;;11.07;10.07;;;5.30;99.90;;;6.16;87.32;97578.09;5243990;28;20212;-79
2020/12/15 09:02:46;;;;;;;10.37;9.27;;;5.30;99.90;;;6.17;87.43;97572.25;5249837;28;20224;-77
2020/12/15 09:05:32;;;;;;;10.67;9.70;;;5.40;99.90;;;6.25;87.80;97576.19;5215615;28;20193;-78
2020/12/15 09:08:05;;;;;;;9.80;8.87;;;5.40;99.90;;;6.31;87.95;97586.75;5229555;28;20217;-79
2020/12/15 09:10:37;;;;;;;10.97;9.97;;;5.50;99.90;;;6.37;87.49;97588.84;5228509;28;20209;-79
2020/12/15 09:13:09;;;;;;;10.27;9.30;;;5.50;99.90;;;6.45;86.50;97584.28;5208697;28;20194;-78
2020/12/15 09:15:49;;;;;;;11.23;10.33;;;5.60;99.90;;;6.40;86.79;97586.50;5222859;28;20584;-77
2020/12/15 09:18:30;;;;;;;10.47;9.67;;;5.60;99.90;;;6.38;86.65;97584.63;5228564;28;20225;-80
2020/12/15 09:21:09;;;;;;;10.40;9.60;;;5.60;99.90;;;6.36;87.56;97588.75;5211975;28;20263;-79
2020/12/15 09:23:43;;;;;;;9.27;8.57;;;5.60;99.90;;;6.41;87.37;97582.31;5235285;28;20210;-78
2020/12/15 09:26:16;;;;;;;9.20;8.40;;;5.60;99.90;;;6.45;87.72;97594.44;5227921;28;20223;-79
2020/12/15 09:28:49;;;;;;;9.60;8.80;;;5.60;99.90;;;6.53;87.33;97598.41;5238482;28;20213;-77
2020/12/15 09:31:21;;;;;;;9.17;8.43;;;5.70;99.90;;;6.58;87.20;97597.06;5243031;28;20224;-78
2020/12/15 09:33:54;;;;;;;10.67;9.73;;;5.70;99.90;;;6.57;87.52;97602.91;5228263;28;20259;-77
2020/12/15 09:36:28;;;;;;;10.07;9.17;;;5.70;99.90;;;6.55;87.00;97601.91;5227600;28;20203;-78
2020/12/15 09:39:01;;;;;;;9.53;8.73;;;5.80;99.90;;;6.58;86.50;97608.84;5225670;28;20244;-80
2020/12/15 09:41:35;;;;;;;9.40;8.70;;;5.80;99.90;;;6.62;86.95;97609.16;5208197;28;20218;-79
2020/12/15 09:44:08;;;;;;;10.13;9.13;;;5.80;99.90;;;6.65;87.41;97619.53;5210940;28;20284;-78
2020/12/15 09:46:40;;;;;;;9.67;8.77;;;5.80;99.90;;;6.70;87.22;97618.19;5228197;28;20291;-79
2020/12/15 09:49:13;;;;;;;9.00;8.30;;;5.90;99.90;;;6.76;86.93;97623.69;5229506;28;20221;-78
2020/12/15 09:51:46;;;;;;;8.87;8.13;;;6.00;99.90;;;6.81;87.01;97618.03;5231488;28;20197;-79
2020/12/15 09:54:18;;;;;;;9.00;8.10;;;6.00;99.90;;;6.86;87.15;97619.22;5237515;28;20229;-78
2020/12/15 09:56:50;;;;;;;8.87;8.07;;;6.10;99.90;;;6.95;86.63;97619.81;5209329;28;20206;-79
2020/12/15 09:59:22;;;;;;;8.50;7.90;;;6.10;99.90;;;6.99;86.10;97616.72;5208675;28;20639;-78
2020/12/15 10:01:54;;;;;;;9.73;8.93;;;6.10;99.90;;;7.13;84.57;97610.91;5227755;28;20309;-78
2020/12/15 10:04:27;;;;;;;10.20;9.30;;;6.20;99.90;;;7.08;85.40;97611.38;5229324;28;20283;-79
2020/12/15 10:07:01;;;;;;;9.43;8.00;;;6.20;99.90;;;7.07;85.00;97607.06;5226553;28;20212;-77
2020/12/15 10:09:34;;;;;;;9.43;8.47;;;6.20;99.90;;;7.06;85.75;97598.56;5228414;28;20197;-79
2020/12/15 10:12:07;;;;;;;8.00;7.30;;;6.30;99.90;;;7.08;85.53;97604.63;5231622;28;20209;-79
2020/12/15 10:14:40;;;;;;;9.57;8.63;;;6.30;99.90;;;7.09;85.35;97590.25;5241449;28;20258;-79
2020/12/15 10:17:12;;;;;;;9.27;8.37;;;6.20;99.90;;;7.14;85.27;97592.31;5228304;28;20597;-79
2020/12/15 10:19:45;;;;;;;9.27;8.37;;;6.30;99.90;;;7.13;83.94;97585.50;5228684;28;20193;-80
2020/12/15 10:22:17;;;;;;;8.80;8.00;;;6.30;99.90;;;7.14;84.78;97577.06;5229110;28;20316;-80
2020/12/15 10:24:49;;;;;;;11.40;10.40;;;6.30;99.90;;;7.17;84.30;97574.72;5229768;28;20339;-80
2020/12/15 10:27:22;;;;;;;12.13;11.03;;;6.30;99.90;;;7.21;83.77;97576.72;5232374;28;20229;-79
2020/12/15 10:29:54;;;;;;;11.43;10.50;;;6.40;99.90;;;7.22;84.32;97575.91;5234321;28;20216;-80
2020/12/15 10:32:26;;;;;;;11.00;10.00;;;6.40;99.90;;;7.36;81.66;97581.03;5234103;28;20219;-80
2020/12/15 10:34:59;;;;;;;9.73;8.83;;;6.50;99.90;;;7.30;81.35;97578.09;5247895;28;20205;-79
2020/12/15 10:37:31;;;;;;;10.90;9.90;;;6.50;99.90;;;7.28;81.42;97584.72;5254545;28;20713;-79
2020/12/15 10:40:04;;;;;;;11.03;10.03;;;6.50;99.90;;;7.40;80.22;97577.88;5239153;28;20572;-78
2020/12/15 10:42:36;;;;;;;10.70;9.77;;;6.50;99.90;;;7.32;80.61;97561.25;5215375;28;20217;-79
2020/12/15 10:45:08;;;;;;;10.43;9.47;;;6.50;99.90;;;7.27;80.49;97560.06;5212584;28;20234;-80
2020/12/15 10:47:40;;;;;;;10.00;9.20;;;6.50;99.90;;;7.17;81.14;97551.84;5215855;28;20221;-79
2020/12/15 10:50:15;;;;;;;10.57;9.63;;;6.50;99.90;;;7.17;81.84;97548.44;5212972;28;20209;-79
2020/12/15 10:52:47;;;;;;;10.27;9.47;;;6.50;99.90;;;7.20;83.04;97544.44;5218641;28;20228;-79
2020/12/15 10:55:19;;;;;;;11.50;10.50;;;6.50;99.90;;;7.22;81.50;97542.00;5233918;28;20665;-79